Terminal Aerodrome Forecast
Issued by NWS Cleveland, OH

Home | Current Version | Previous Version | Graphics & Text | Print | Product List | Glossary On
Versions: 1 2 3 4 5 6 7 8 9 10 11 12 13 14 15 16 17 18
000
FTUS41 KCLE 222334
TAFMFD
TAF
KMFD 222334Z 2300/2324 31005KT P6SM BKN028
      TEMPO 2300/2302 SCT030
     FM230200 22003KT P6SM SCT030 BKN200
     FM231500 21009KT P6SM BKN060
     FM232300 22008KT P6SM SCT060 BKN150=

USA.gov is the U.S. government's official web portal to all federal, state and local government web resources and services.